createdAt,value
2019-03-12T00:02:14.443Z,99.90
2019-03-12T00:04:43.373Z,99.90
2019-03-12T00:07:14.301Z,99.90
2019-03-12T00:09:43.212Z,99.90
2019-03-12T00:12:12.091Z,99.90
2019-03-12T00:14:41.159Z,99.90
2019-03-12T00:17:22.456Z,99.90
2019-03-12T00:19:58.222Z,99.90
2019-03-12T00:22:29.146Z,99.90
2019-03-12T00:24:59.996Z,99.90
2019-03-12T00:27:28.894Z,99.90
2019-03-12T00:29:59.830Z,99.90
2019-03-12T00:32:30.747Z,99.90
2019-03-12T00:35:02.813Z,99.90
2019-03-12T00:37:31.710Z,99.90
2019-03-12T00:40:01.655Z,99.90
2019-03-12T00:42:40.238Z,99.90
2019-03-12T00:45:12.297Z,99.90
2019-03-12T00:47:41.337Z,99.90
2019-03-12T00:50:11.472Z,99.90
2019-03-12T00:52:40.566Z,99.90
2019-03-12T00:55:09.805Z,99.90
2019-03-12T00:57:39.862Z,99.90
2019-03-12T01:00:11.894Z,99.90
2019-03-12T01:02:40.935Z,99.90
2019-03-12T01:05:10.944Z,99.90
2019-03-12T01:07:44.086Z,99.90
2019-03-12T01:10:22.507Z,99.90
2019-03-12T01:13:00.721Z,99.90
2019-03-12T01:15:36.897Z,99.90
2019-03-12T01:18:14.141Z,99.90
2019-03-12T01:20:43.235Z,99.90
2019-03-12T01:23:14.186Z,99.90
2019-03-12T01:25:44.293Z,99.90
2019-03-12T01:28:14.366Z,99.90
2019-03-12T01:30:43.395Z,99.90
2019-03-12T01:33:19.582Z,99.90
2019-03-12T01:35:53.588Z,99.90
2019-03-12T01:38:22.582Z,99.90
2019-03-12T01:40:51.625Z,99.90
2019-03-12T01:43:20.641Z,99.90
2019-03-12T01:45:49.752Z,99.90
2019-03-12T01:48:20.782Z,99.90
2019-03-12T01:50:49.809Z,99.90
2019-03-12T01:53:18.897Z,99.90
2019-03-12T01:55:50.946Z,99.90
2019-03-12T01:58:21.832Z,99.90
2019-03-12T02:00:50.868Z,99.90
2019-03-12T02:03:19.892Z,99.90
2019-03-12T02:05:50.994Z,99.90
2019-03-12T02:08:20.020Z,99.90
2019-03-12T02:10:54.043Z,99.90
2019-03-12T02:13:28.147Z,99.90
2019-03-12T02:15:57.207Z,99.90
2019-03-12T02:18:26.241Z,99.90
2019-03-12T02:21:01.315Z,99.90
2019-03-12T02:23:36.202Z,99.90
2019-03-12T02:26:06.240Z,99.90
2019-03-12T02:28:44.347Z,99.90
2019-03-12T02:31:13.313Z,99.90
2019-03-12T02:33:48.168Z,99.90
2019-03-12T02:36:28.095Z,99.90
2019-03-12T02:38:57.105Z,99.90
2019-03-12T02:41:28.046Z,99.90
2019-03-12T02:43:57.030Z,99.90
2019-03-12T02:46:25.970Z,99.90
2019-03-12T02:48:55.007Z,99.90
2019-03-12T02:51:25.035Z,99.90
2019-03-12T02:54:00.232Z,99.90
2019-03-12T02:56:29.261Z,99.90
2019-03-12T02:59:01.295Z,99.90
2019-03-12T03:01:33.567Z,99.90
2019-03-12T03:04:02.632Z,99.90
2019-03-12T03:06:52.795Z,99.90
2019-03-12T03:09:22.775Z,99.90
2019-03-12T03:11:54.963Z,99.90
2019-03-12T03:14:36.019Z,99.90
2019-03-12T03:17:05.531Z,99.90
2019-03-12T03:19:34.442Z,99.90
2019-03-12T03:22:09.536Z,99.90
2019-03-12T03:24:38.635Z,99.90
2019-03-12T03:27:07.547Z,99.90
2019-03-12T03:30:01.782Z,99.90
2019-03-12T03:32:30.838Z,99.90
2019-03-12T03:35:00.849Z,99.90
2019-03-12T03:37:35.680Z,99.90
2019-03-12T03:40:16.295Z,99.90
2019-03-12T03:42:45.403Z,99.90
2019-03-12T03:45:16.998Z,99.90
2019-03-12T03:47:53.784Z,99.90
2019-03-12T03:50:22.734Z,99.90
2019-03-12T03:52:53.764Z,99.90
2019-03-12T03:55:23.804Z,99.90
2019-03-12T03:57:53.895Z,99.90
2019-03-12T04:00:24.533Z,99.90
2019-03-12T04:03:00.532Z,99.90
2019-03-12T04:05:38.613Z,99.90
2019-03-12T04:08:08.603Z,99.90
2019-03-12T04:10:37.646Z,99.90
2019-03-12T04:13:08.741Z,99.90
2019-03-12T04:15:37.707Z,99.90
2019-03-12T04:18:06.638Z,99.90
2019-03-12T04:20:35.647Z,99.90
2019-03-12T04:23:10.485Z,99.90
2019-03-12T04:25:46.159Z,99.90
2019-03-12T04:28:21.263Z,99.90
2019-03-12T04:30:53.503Z,99.90
2019-03-12T04:34:15.971Z,99.90
2019-03-12T04:36:45.105Z,99.90
2019-03-12T04:39:24.856Z,99.90
2019-03-12T04:41:54.800Z,99.90
2019-03-12T04:44:24.122Z,99.90
2019-03-12T04:46:53.293Z,99.90
2019-03-12T04:49:23.406Z,99.90
2019-03-12T04:51:54.316Z,99.90
2019-03-12T04:54:23.262Z,99.90
2019-03-12T04:56:52.520Z,99.90
2019-03-12T04:59:21.657Z,99.90
2019-03-12T05:01:50.585Z,99.90
2019-03-12T05:04:19.457Z,99.90
2019-03-12T05:06:48.623Z,99.90
2019-03-12T05:09:31.438Z,99.90
2019-03-12T05:12:00.429Z,99.90
2019-03-12T05:14:31.785Z,99.90
2019-03-12T05:17:06.765Z,99.90
2019-03-12T05:19:35.935Z,99.90
2019-03-12T05:22:05.173Z,99.90
2019-03-12T05:24:34.009Z,99.90
2019-03-12T05:27:02.899Z,99.90
2019-03-12T05:29:31.741Z,99.90
2019-03-12T05:32:00.567Z,99.90
2019-03-12T05:34:29.418Z,99.90
2019-03-12T05:36:58.546Z,99.90
2019-03-12T05:39:27.523Z,99.90
2019-03-12T05:41:56.590Z,99.90
2019-03-12T05:44:25.762Z,99.90
2019-03-12T05:46:54.648Z,99.90
2019-03-12T05:49:23.810Z,99.90
2019-03-12T05:51:52.713Z,99.90
2019-03-12T05:54:21.863Z,99.90
2019-03-12T05:56:50.831Z,99.90
2019-03-12T05:59:21.114Z,99.90
2019-03-12T06:01:50.259Z,99.90
2019-03-12T06:04:19.150Z,99.90
2019-03-12T06:06:48.393Z,99.90
2019-03-12T06:09:29.497Z,99.90
2019-03-12T06:11:48.162Z,99.90
2019-03-12T06:14:17.130Z,99.90
2019-03-12T06:16:45.953Z,99.90
2019-03-12T06:19:14.770Z,99.90
2019-03-12T06:21:43.613Z,99.90
2019-03-12T06:24:15.755Z,99.90
2019-03-12T06:26:44.821Z,99.90
2019-03-12T06:29:14.709Z,99.90
2019-03-12T06:32:03.723Z,99.90
2019-03-12T06:34:45.647Z,99.90
2019-03-12T06:37:39.441Z,99.90
2019-03-12T06:40:26.547Z,99.90
2019-03-12T06:43:10.679Z,99.90
2019-03-12T06:45:57.663Z,99.90
2019-03-12T06:48:38.470Z,99.90
2019-03-12T06:51:14.407Z,99.90
2019-03-12T06:53:58.058Z,99.90
2019-03-12T06:56:44.823Z,99.90
2019-03-12T06:59:36.022Z,99.90
2019-03-12T07:02:22.981Z,99.90
2019-03-12T07:05:24.017Z,99.90
2019-03-12T07:08:10.787Z,99.90
2019-03-12T07:10:54.266Z,99.90
2019-03-12T07:13:37.942Z,99.90
2019-03-12T07:16:23.990Z,99.90
2019-03-12T07:19:01.409Z,99.90
2019-03-12T07:21:39.878Z,99.90
2019-03-12T07:24:28.169Z,99.90
2019-03-12T07:27:09.509Z,99.90
2019-03-12T07:29:53.707Z,99.90
2019-03-12T07:32:38.113Z,99.90
2019-03-12T07:35:29.321Z,99.90
2019-03-12T07:38:16.766Z,99.90
2019-03-12T07:41:04.930Z,99.90
2019-03-12T07:43:54.374Z,99.90
2019-03-12T07:46:44.793Z,99.90
2019-03-12T07:49:48.283Z,99.90
2019-03-12T07:52:36.257Z,99.90
2019-03-12T07:55:23.465Z,99.90
2019-03-12T07:58:10.442Z,99.90
2019-03-12T08:01:05.800Z,99.90
2019-03-12T08:04:02.869Z,99.90
2019-03-12T08:06:50.776Z,99.90
2019-03-12T08:09:41.437Z,99.90
2019-03-12T08:12:21.675Z,99.90
2019-03-12T08:15:08.574Z,99.90
2019-03-12T08:17:51.654Z,99.90
2019-03-12T08:20:44.107Z,99.90
2019-03-12T08:23:38.082Z,99.90
2019-03-12T08:26:31.939Z,99.90
2019-03-12T08:29:19.262Z,99.90
2019-03-12T08:32:10.055Z,99.90
2019-03-12T08:34:49.607Z,99.90
2019-03-12T08:37:37.659Z,99.90
2019-03-12T08:40:28.969Z,99.90
2019-03-12T08:43:22.737Z,99.90
2019-03-12T08:46:13.742Z,99.90
2019-03-12T08:49:04.849Z,99.90
2019-03-12T08:51:48.517Z,99.90
2019-03-12T08:54:39.394Z,99.90
2019-03-12T08:57:42.793Z,99.90
2019-03-12T09:00:20.755Z,99.90
2019-03-12T09:02:56.469Z,99.90
2019-03-12T09:05:53.767Z,99.90
2019-03-12T09:08:44.194Z,99.90
2019-03-12T09:11:32.202Z,99.90
2019-03-12T09:14:18.151Z,99.90
2019-03-12T09:17:06.223Z,99.90
2019-03-12T09:19:52.367Z,99.90
2019-03-12T09:22:58.579Z,99.90
2019-03-12T09:25:50.500Z,99.90
2019-03-12T09:28:29.864Z,99.90
2019-03-12T09:31:09.125Z,99.90
2019-03-12T09:33:53.521Z,99.90
2019-03-12T09:36:47.370Z,99.90
2019-03-12T09:39:24.562Z,99.90
2019-03-12T09:42:21.869Z,99.90
2019-03-12T09:45:12.783Z,99.90
2019-03-12T09:47:54.790Z,99.90
2019-03-12T09:50:47.257Z,99.90
2019-03-12T09:53:47.186Z,99.90
2019-03-12T09:56:34.115Z,99.90
2019-03-12T09:59:22.002Z,99.90
2019-03-12T10:02:03.858Z,99.90
2019-03-12T10:04:38.832Z,99.90
2019-03-12T10:07:29.994Z,99.90
2019-03-12T10:10:05.689Z,99.90
2019-03-12T10:12:53.682Z,99.90
2019-03-12T10:15:41.999Z,99.90
2019-03-12T10:18:29.931Z,99.90
2019-03-12T10:21:16.758Z,99.90
2019-03-12T10:23:54.138Z,99.90
2019-03-12T10:26:46.258Z,99.90
2019-03-12T10:29:20.482Z,99.90
2019-03-12T10:32:00.808Z,99.90
2019-03-12T10:34:51.579Z,99.90
2019-03-12T10:37:42.246Z,99.90
2019-03-12T10:40:16.378Z,99.90
2019-03-12T10:42:56.478Z,99.90
2019-03-12T10:45:50.710Z,99.90
2019-03-12T10:48:19.807Z,99.90
2019-03-12T10:50:48.735Z,99.90
2019-03-12T10:53:17.701Z,99.90
2019-03-12T10:55:46.778Z,99.90
2019-03-12T10:58:15.801Z,99.90
2019-03-12T11:00:44.791Z,99.90
2019-03-12T11:03:13.875Z,99.90
2019-03-12T11:05:46.266Z,99.90
2019-03-12T11:08:13.539Z,99.90
2019-03-12T11:10:42.486Z,99.90
2019-03-12T11:13:14.446Z,99.90
2019-03-12T11:15:42.022Z,99.90
2019-03-12T11:18:10.958Z,99.90
2019-03-12T11:20:40.121Z,99.90
2019-03-12T11:23:09.018Z,99.90
2019-03-12T11:25:38.038Z,99.90
2019-03-12T11:28:06.937Z,99.90
2019-03-12T11:30:38.006Z,99.90
2019-03-12T11:33:07.022Z,99.90
2019-03-12T11:35:44.898Z,99.90
2019-03-12T11:38:13.822Z,99.90
2019-03-12T11:40:43.088Z,99.90
2019-03-12T11:43:12.256Z,99.90
2019-03-12T11:45:41.259Z,99.90
2019-03-12T11:48:10.468Z,99.90
2019-03-12T11:50:39.502Z,99.90
2019-03-12T11:53:08.498Z,99.90
2019-03-12T11:55:37.555Z,99.90
2019-03-12T11:58:06.725Z,99.90
2019-03-12T12:00:41.236Z,99.90
2019-03-12T12:03:10.501Z,99.90
2019-03-12T12:05:39.495Z,99.90
2019-03-12T12:08:08.391Z,99.90
2019-03-12T12:10:37.686Z,99.00
2019-03-12T12:13:06.679Z,98.60
2019-03-12T12:15:35.691Z,96.30
2019-03-12T12:18:06.382Z,97.90
2019-03-12T12:20:35.301Z,95.50
2019-03-12T12:23:04.294Z,95.60
2019-03-12T12:25:33.303Z,95.80
2019-03-12T12:28:08.091Z,95.80
2019-03-12T12:30:43.979Z,94.10
2019-03-12T12:33:12.971Z,93.20
2019-03-12T12:35:41.963Z,94.30
2019-03-12T12:38:11.018Z,94.30
2019-03-12T12:40:40.008Z,92.80
2019-03-12T12:43:09.114Z,91.90
2019-03-12T12:45:38.170Z,91.70
2019-03-12T12:48:11.304Z,91.30
2019-03-12T12:50:40.299Z,91.00
2019-03-12T12:53:09.393Z,90.70
2019-03-12T12:55:38.459Z,91.00
2019-03-12T12:58:08.383Z,91.30
2019-03-12T13:00:38.425Z,90.90
2019-03-12T13:03:14.661Z,90.60
2019-03-12T13:05:43.692Z,91.90
2019-03-12T13:08:13.023Z,90.80
2019-03-12T13:10:43.032Z,91.50
2019-03-12T13:13:12.026Z,90.60
2019-03-12T13:15:40.918Z,91.50
2019-03-12T13:18:09.915Z,92.40
2019-03-12T13:20:38.864Z,91.40
2019-03-12T13:23:07.866Z,91.30
2019-03-12T13:25:36.795Z,91.50
2019-03-12T13:28:06.750Z,91.90
2019-03-12T13:30:35.812Z,91.50
2019-03-12T13:33:04.766Z,92.20
2019-03-12T13:35:33.755Z,92.60
2019-03-12T13:38:02.714Z,92.00
2019-03-12T13:40:31.655Z,93.10
2019-03-12T13:43:00.660Z,93.20
2019-03-12T13:45:29.682Z,93.70
2019-03-12T13:47:58.862Z,93.20
2019-03-12T13:50:28.024Z,92.90
2019-03-12T13:52:57.046Z,93.40
2019-03-12T13:55:26.145Z,94.00
2019-03-12T13:57:55.206Z,93.60
2019-03-12T14:00:24.303Z,94.40
2019-03-12T14:02:53.410Z,94.60
2019-03-12T14:05:22.422Z,93.50
2019-03-12T14:07:51.458Z,94.20
2019-03-12T14:10:21.416Z,93.80
2019-03-12T14:12:50.930Z,94.40
2019-03-12T14:15:25.765Z,94.20
2019-03-12T14:17:54.813Z,94.90
2019-03-12T14:21:02.123Z,94.70
2019-03-12T14:23:34.184Z,93.90
2019-03-12T14:26:03.343Z,94.90
2019-03-12T14:28:32.309Z,95.00
2019-03-12T14:31:01.843Z,94.90
2019-03-12T14:33:30.842Z,95.30
2019-03-12T14:35:59.778Z,95.20
2019-03-12T14:38:28.767Z,95.60
2019-03-12T14:40:57.768Z,95.40
2019-03-12T14:43:27.069Z,94.10
2019-03-12T14:45:59.098Z,94.50
2019-03-12T14:48:45.355Z,94.90
2019-03-12T14:51:35.912Z,95.00
2019-03-12T14:54:05.235Z,94.90
2019-03-12T14:56:34.167Z,94.70
2019-03-12T14:59:03.617Z,94.80
2019-03-12T15:01:32.651Z,95.10
2019-03-12T15:04:01.730Z,95.30
2019-03-12T15:06:30.756Z,94.60
2019-03-12T15:09:01.519Z,94.40
2019-03-12T15:11:30.462Z,94.40
2019-03-12T15:13:59.657Z,94.30
2019-03-12T15:16:28.590Z,94.60
2019-03-12T15:18:57.602Z,94.00
2019-03-12T15:21:29.644Z,93.70
2019-03-12T15:23:58.921Z,94.60
2019-03-12T15:26:33.408Z,93.50
2019-03-12T15:29:03.459Z,93.90
2019-03-12T15:31:32.502Z,93.70
2019-03-12T15:34:01.521Z,93.90
2019-03-12T15:36:34.906Z,93.20
2019-03-12T15:39:05.504Z,93.20
2019-03-12T15:41:34.429Z,92.90
2019-03-12T15:44:03.847Z,92.40
2019-03-12T15:46:32.781Z,93.40
2019-03-12T15:49:01.701Z,92.70
2019-03-12T15:51:30.554Z,91.90
2019-03-12T15:54:00.426Z,92.30
2019-03-12T15:56:29.414Z,92.80
2019-03-12T15:58:58.432Z,92.40
2019-03-12T16:01:27.336Z,92.60
2019-03-12T16:03:56.368Z,92.90
2019-03-12T16:06:26.508Z,92.60
2019-03-12T16:08:55.711Z,93.30
2019-03-12T16:11:24.696Z,93.40
2019-03-12T16:13:53.633Z,92.80
2019-03-12T16:16:22.644Z,93.10
2019-03-12T16:18:51.575Z,92.90
2019-03-12T16:21:20.540Z,93.20
2019-03-12T16:23:52.713Z,93.60
2019-03-12T16:26:21.056Z,93.20
2019-03-12T16:28:49.910Z,93.70
2019-03-12T16:31:18.866Z,94.20
2019-03-12T16:33:48.380Z,93.90
2019-03-12T16:36:17.222Z,94.50
2019-03-12T16:38:46.144Z,94.30
2019-03-12T16:41:15.098Z,94.20
2019-03-12T16:43:49.792Z,94.60
2019-03-12T16:46:18.890Z,94.80
2019-03-12T16:48:47.920Z,94.50
2019-03-12T16:51:18.935Z,94.80
2019-03-12T16:53:47.831Z,94.50
2019-03-12T16:56:16.676Z,94.30
2019-03-12T16:58:45.557Z,94.60
2019-03-12T17:01:14.758Z,95.00
2019-03-12T17:03:43.769Z,94.50
2019-03-12T17:06:12.787Z,95.20
2019-03-12T17:08:41.651Z,94.70
2019-03-12T17:11:10.728Z,95.00
2019-03-12T17:13:39.596Z,94.80
2019-03-12T17:16:08.534Z,95.50
2019-03-12T17:18:37.496Z,95.90
2019-03-12T17:21:09.523Z,95.60
2019-03-12T17:23:38.485Z,95.10
2019-03-12T17:26:07.399Z,95.90
2019-03-12T17:28:36.335Z,95.80
2019-03-12T17:31:05.339Z,95.90
2019-03-12T17:33:40.283Z,96.50
2019-03-12T17:36:09.291Z,95.60
2019-03-12T17:38:47.554Z,95.80
2019-03-12T17:41:16.574Z,95.90
2019-03-12T17:43:45.504Z,95.50
2019-03-12T17:46:14.518Z,95.40
2019-03-12T17:48:43.510Z,95.70
2019-03-12T17:51:12.442Z,95.60
2019-03-12T17:53:41.303Z,96.30
2019-03-12T17:56:10.223Z,96.10
2019-03-12T17:58:39.172Z,95.60
2019-03-12T18:01:08.180Z,95.40
2019-03-12T18:03:37.160Z,95.90
2019-03-12T18:06:06.174Z,95.30
2019-03-12T18:08:35.078Z,95.70
2019-03-12T18:11:03.957Z,95.30
2019-03-12T18:13:32.790Z,95.80
2019-03-12T18:16:01.658Z,95.70
2019-03-12T18:18:32.905Z,96.20
2019-03-12T18:21:03.230Z,96.90
2019-03-12T18:23:32.108Z,96.90
2019-03-12T18:26:11.573Z,96.90
2019-03-12T18:28:40.638Z,96.10
2019-03-12T18:31:14.469Z,96.70
2019-03-12T18:33:43.521Z,96.90
2019-03-12T18:36:13.493Z,97.10
2019-03-12T18:38:42.540Z,97.20
2019-03-12T18:41:11.633Z,97.20
2019-03-12T18:43:40.595Z,97.30
2019-03-12T18:46:15.873Z,97.50
2019-03-12T18:48:45.023Z,97.50
2019-03-12T18:51:14.981Z,97.20
2019-03-12T18:53:46.011Z,97.20
2019-03-12T18:56:21.879Z,97.00
2019-03-12T18:58:56.743Z,96.90
2019-03-12T19:01:32.506Z,96.50
2019-03-12T19:04:04.728Z,96.60
2019-03-12T19:06:33.817Z,96.40
2019-03-12T19:09:05.186Z,96.30
2019-03-12T19:11:39.914Z,95.90
2019-03-12T19:14:08.992Z,95.70
2019-03-12T19:16:38.091Z,95.80
2019-03-12T19:19:26.279Z,95.80
2019-03-12T19:21:55.199Z,95.90
2019-03-12T19:24:24.207Z,95.70
2019-03-12T19:26:55.062Z,95.60
2019-03-12T19:29:24.169Z,95.60
2019-03-12T19:31:59.682Z,95.90
2019-03-12T19:34:38.447Z,96.00
2019-03-12T19:37:08.682Z,95.90
2019-03-12T19:39:40.100Z,95.30
2019-03-12T19:42:09.145Z,95.30
2019-03-12T19:44:38.093Z,95.70
2019-03-12T19:47:07.174Z,94.90
2019-03-12T19:49:36.144Z,95.10
2019-03-12T19:52:07.193Z,95.00
2019-03-12T19:54:36.106Z,95.50
2019-03-12T19:57:08.192Z,95.20
2019-03-12T19:59:37.250Z,95.20
2019-03-12T20:02:16.092Z,94.90
2019-03-12T20:04:47.250Z,95.00
2019-03-12T20:07:10.939Z,95.20
2019-03-12T20:10:24.101Z,95.00
2019-03-12T20:13:39.597Z,94.90
2019-03-12T20:16:44.481Z,95.20
2019-03-12T20:19:54.262Z,95.20
2019-03-12T20:23:02.651Z,95.40
2019-03-12T20:26:07.505Z,95.70
2019-03-12T20:29:15.809Z,95.50
2019-03-12T20:32:22.511Z,95.00
2019-03-12T20:35:43.793Z,95.20
2019-03-12T20:38:51.306Z,94.90
2019-03-12T20:42:28.823Z,94.60
2019-03-12T20:45:34.228Z,94.50
2019-03-12T20:48:40.343Z,94.90
2019-03-12T20:51:44.974Z,94.80
2019-03-12T20:54:53.337Z,94.70
2019-03-12T20:57:57.977Z,94.20
2019-03-12T21:01:20.881Z,94.50
2019-03-12T21:04:26.894Z,94.80
2019-03-12T21:07:29.988Z,94.40
2019-03-12T21:10:35.155Z,94.90
2019-03-12T21:13:41.101Z,94.50
2019-03-12T21:16:52.846Z,94.10
2019-03-12T21:20:08.450Z,93.90
2019-03-12T21:23:36.113Z,94.50
2019-03-12T21:26:28.628Z,94.30
2019-03-12T21:29:40.171Z,94.10
2019-03-12T21:32:09.246Z,94.50
2019-03-12T21:34:38.373Z,94.00
2019-03-12T21:37:07.450Z,93.70
2019-03-12T21:39:55.819Z,94.10
2019-03-12T21:42:25.642Z,94.30
2019-03-12T21:45:02.168Z,93.90
2019-03-12T21:47:31.554Z,94.30
2019-03-12T21:50:00.500Z,93.90
2019-03-12T21:52:31.402Z,93.70
2019-03-12T21:55:00.428Z,94.00
2019-03-12T21:57:29.468Z,94.60
2019-03-12T22:00:00.589Z,94.00
2019-03-12T22:02:30.579Z,93.70
2019-03-12T22:05:02.534Z,94.10
2019-03-12T22:07:31.415Z,93.90
2019-03-12T22:10:02.343Z,94.20
2019-03-12T22:12:38.393Z,94.10
2019-03-12T22:15:08.143Z,94.40
2019-03-12T22:17:38.261Z,94.70
2019-03-12T22:20:09.505Z,94.70
2019-03-12T22:22:43.089Z,94.70
2019-03-12T22:25:13.870Z,94.80
2019-03-12T22:27:45.015Z,95.10
2019-03-12T22:30:17.676Z,94.60
2019-03-12T22:33:05.743Z,94.90
2019-03-12T22:35:34.761Z,94.70
2019-03-12T22:38:03.694Z,94.90
2019-03-12T22:40:32.630Z,95.10
2019-03-12T22:43:01.468Z,95.00
2019-03-12T22:45:30.417Z,95.10
2019-03-12T22:47:59.411Z,95.00
2019-03-12T22:50:28.300Z,95.10
2019-03-12T22:52:57.198Z,95.50
2019-03-12T22:55:27.118Z,95.50
2019-03-12T22:57:56.067Z,95.90
2019-03-12T23:00:26.145Z,96.20
2019-03-12T23:02:55.097Z,96.10
2019-03-12T23:05:24.007Z,96.50
2019-03-12T23:07:55.207Z,96.80
2019-03-12T23:10:25.095Z,97.30
2019-03-12T23:12:54.093Z,98.10
2019-03-12T23:15:23.169Z,97.70
2019-03-12T23:17:52.175Z,97.90
2019-03-12T23:20:21.268Z,98.10
2019-03-12T23:22:52.251Z,98.00
2019-03-12T23:25:21.105Z,98.80
2019-03-12T23:27:50.111Z,99.30
2019-03-12T23:30:19.119Z,99.90
2019-03-12T23:32:48.128Z,99.90
2019-03-12T23:35:17.128Z,99.90
2019-03-12T23:37:46.206Z,99.90
2019-03-12T23:40:15.593Z,99.90
2019-03-12T23:42:44.581Z,99.90
2019-03-12T23:45:13.682Z,99.90
2019-03-12T23:47:42.691Z,99.90
2019-03-12T23:50:12.277Z,99.90
2019-03-12T23:52:41.262Z,99.90
2019-03-12T23:55:10.976Z,99.90
2019-03-12T23:57:46.187Z,99.90
